Terminal Aerodrome Forecast
Issued by NWS Birmingham, AL

Home | Current Version | Previous Version | Text Only | Print | Product List | Glossary On
Versions: 1 2 3 4 5 6 7 8 9 10 11 12 13 14 15 16 17
476
FTUS44 KBMX 172344
TAFBHM
TAF
KBHM 172344Z 1800/1824 20007G14KT P6SM VCSH SCT040 BKN100
     FM180300 22006KT P6SM VCSH BKN015 BKN100
     FM180600 25006KT 4SM BR VCSH OVC007
     FM181500 34003KT 4SM BR OVC015=

USA.gov is the U.S. government's official web portal to all federal, state and local government web resources and services.